sensor_id;sensor_type;location;lat;lon;timestamp;pressure;altitude;pressure_sealevel;temperature;humidity
19845;BME280;10083;51.038;7.012;2024-01-15T00:02:10;102294.59;;;2.80;100.00
19845;BME280;10083;51.038;7.012;2024-01-15T00:04:41;102289.72;;;2.65;100.00
19845;BME280;10083;51.038;7.012;2024-01-15T00:07:09;102262.53;;;2.69;100.00
19845;BME280;10083;51.038;7.012;2024-01-15T00:09:36;102262.31;;;2.63;100.00
19845;BME280;10083;51.038;7.012;2024-01-15T00:12:06;102230.13;;;2.76;100.00
19845;BME280;10083;51.038;7.012;2024-01-15T00:14:34;102237.53;;;2.59;100.00
19845;BME280;10083;51.038;7.012;2024-01-15T00:17:01;102245.69;;;2.67;100.00
19845;BME280;10083;51.038;7.012;2024-01-15T00:19:29;102250.19;;;2.43;100.00
19845;BME280;10083;51.038;7.012;2024-01-15T00:21:58;102247.28;;;2.60;100.00
19845;BME280;10083;51.038;7.012;2024-01-15T00:24:25;102254.00;;;2.51;100.00
19845;BME280;10083;51.038;7.012;2024-01-15T00:26:53;102258.38;;;2.50;100.00
19845;BME280;10083;51.038;7.012;2024-01-15T00:29:24;102271.34;;;2.43;100.00
19845;BME280;10083;51.038;7.012;2024-01-15T00:31:51;102291.44;;;2.38;100.00
19845;BME280;10083;51.038;7.012;2024-01-15T00:34:22;102330.00;;;2.33;100.00
19845;BME280;10083;51.038;7.012;2024-01-15T00:36:50;102323.22;;;2.15;100.00
19845;BME280;10083;51.038;7.012;2024-01-15T00:39:19;102328.75;;;2.21;100.00
19845;BME280;10083;51.038;7.012;2024-01-15T00:41:47;102321.91;;;2.28;100.00
19845;BME280;10083;51.038;7.012;2024-01-15T00:44:15;102335.47;;;2.13;100.00
19845;BME280;10083;51.038;7.012;2024-01-15T00:46:46;102332.41;;;2.26;100.00
19845;BME280;10083;51.038;7.012;2024-01-15T00:49:13;102347.97;;;2.17;100.00
19845;BME280;10083;51.038;7.012;2024-01-15T00:51:41;102350.44;;;2.13;100.00
19845;BME280;10083;51.038;7.012;2024-01-15T00:54:09;102333.16;;;2.22;100.00
19845;BME280;10083;51.038;7.012;2024-01-15T00:56:37;102342.69;;;2.17;100.00
19845;BME280;10083;51.038;7.012;2024-01-15T00:59:09;102341.72;;;2.15;100.00
19845;BME280;10083;51.038;7.012;2024-01-15T01:01:43;102347.25;;;2.21;100.00
19845;BME280;10083;51.038;7.012;2024-01-15T01:04:20;102363.38;;;2.29;100.00
19845;BME280;10083;51.038;7.012;2024-01-15T01:06:56;102363.88;;;2.19;100.00
19845;BME280;10083;51.038;7.012;2024-01-15T01:09:28;102375.78;;;2.32;100.00
19845;BME280;10083;51.038;7.012;2024-01-15T01:11:56;102368.84;;;2.35;100.00
19845;BME280;10083;51.038;7.012;2024-01-15T01:14:30;102374.69;;;2.26;100.00
19845;BME280;10083;51.038;7.012;2024-01-15T01:17:02;102378.56;;;2.35;100.00
19845;BME280;10083;51.038;7.012;2024-01-15T01:19:31;102381.72;;;2.50;100.00
19845;BME280;10083;51.038;7.012;2024-01-15T01:21:59;102395.78;;;2.49;100.00
19845;BME280;10083;51.038;7.012;2024-01-15T01:24:27;102389.56;;;2.47;100.00
19845;BME280;10083;51.038;7.012;2024-01-15T01:26:58;102392.19;;;2.47;100.00
19845;BME280;10083;51.038;7.012;2024-01-15T01:29:25;102387.84;;;2.49;100.00
19845;BME280;10083;51.038;7.012;2024-01-15T01:31:54;102382.56;;;2.49;100.00
19845;BME280;10083;51.038;7.012;2024-01-15T01:34:23;102378.75;;;2.41;100.00
19845;BME280;10083;51.038;7.012;2024-01-15T01:36:53;102377.97;;;2.43;100.00
19845;BME280;10083;51.038;7.012;2024-01-15T01:39:21;102364.03;;;2.47;100.00
19845;BME280;10083;51.038;7.012;2024-01-15T01:41:49;102378.97;;;2.47;100.00
19845;BME280;10083;51.038;7.012;2024-01-15T01:44:17;102367.50;;;2.46;100.00
19845;BME280;10083;51.038;7.012;2024-01-15T01:46:44;102365.78;;;2.48;100.00
19845;BME280;10083;51.038;7.012;2024-01-15T01:49:12;102360.91;;;2.59;100.00
19845;BME280;10083;51.038;7.012;2024-01-15T01:51:40;102364.78;;;2.45;100.00
19845;BME280;10083;51.038;7.012;2024-01-15T01:54:10;102359.09;;;2.58;100.00
19845;BME280;10083;51.038;7.012;2024-01-15T01:56:40;102370.22;;;2.48;100.00
19845;BME280;10083;51.038;7.012;2024-01-15T01:59:08;102359.84;;;2.54;100.00
19845;BME280;10083;51.038;7.012;2024-01-15T02:01:38;102374.69;;;2.50;100.00
19845;BME280;10083;51.038;7.012;2024-01-15T02:04:07;102372.94;;;2.51;100.00
19845;BME280;10083;51.038;7.012;2024-01-15T02:06:35;102373.03;;;2.52;100.00
19845;BME280;10083;51.038;7.012;2024-01-15T02:09:03;102381.72;;;2.50;100.00
19845;BME280;10083;51.038;7.012;2024-01-15T02:11:33;102392.34;;;2.51;100.00
19845;BME280;10083;51.038;7.012;2024-01-15T02:14:01;102386.50;;;2.60;100.00
19845;BME280;10083;51.038;7.012;2024-01-15T02:16:29;102382.03;;;2.59;100.00
19845;BME280;10083;51.038;7.012;2024-01-15T02:18:56;102379.50;;;2.62;100.00
19845;BME280;10083;51.038;7.012;2024-01-15T02:21:28;102386.34;;;2.55;100.00
19845;BME280;10083;51.038;7.012;2024-01-15T02:23:59;102367.59;;;2.74;100.00
19845;BME280;10083;51.038;7.012;2024-01-15T02:26:26;102375.91;;;2.60;100.00
19845;BME280;10083;51.038;7.012;2024-01-15T02:28:54;102362.88;;;2.66;100.00
19845;BME280;10083;51.038;7.012;2024-01-15T02:31:22;102357.97;;;2.77;100.00
19845;BME280;10083;51.038;7.012;2024-01-15T02:33:49;102354.03;;;2.64;100.00
19845;BME280;10083;51.038;7.012;2024-01-15T02:36:17;102348.66;;;2.61;100.00
19845;BME280;10083;51.038;7.012;2024-01-15T02:38:46;102359.94;;;2.57;100.00
19845;BME280;10083;51.038;7.012;2024-01-15T02:41:15;102350.84;;;2.74;100.00
19845;BME280;10083;51.038;7.012;2024-01-15T02:43:42;102356.81;;;2.68;100.00
19845;BME280;10083;51.038;7.012;2024-01-15T02:46:10;102334.34;;;2.81;100.00
19845;BME280;10083;51.038;7.012;2024-01-15T02:48:39;102341.63;;;2.88;100.00
19845;BME280;10083;51.038;7.012;2024-01-15T02:51:06;102348.09;;;2.71;100.00
19845;BME280;10083;51.038;7.012;2024-01-15T02:53:36;102341.38;;;2.81;100.00
19845;BME280;10083;51.038;7.012;2024-01-15T02:56:03;102334.50;;;2.86;100.00
19845;BME280;10083;51.038;7.012;2024-01-15T02:58:33;102331.88;;;2.87;100.00
19845;BME280;10083;51.038;7.012;2024-01-15T03:01:01;102331.03;;;2.88;100.00
19845;BME280;10083;51.038;7.012;2024-01-15T03:03:34;102324.41;;;3.01;100.00
19845;BME280;10083;51.038;7.012;2024-01-15T03:06:07;102326.81;;;2.93;100.00
19845;BME280;10083;51.038;7.012;2024-01-15T03:08:35;102306.38;;;2.89;100.00
19845;BME280;10083;51.038;7.012;2024-01-15T03:11:04;102304.72;;;2.93;100.00
19845;BME280;10083;51.038;7.012;2024-01-15T03:13:35;102317.13;;;2.94;100.00
19845;BME280;10083;51.038;7.012;2024-01-15T03:16:04;102303.91;;;2.94;100.00
19845;BME280;10083;51.038;7.012;2024-01-15T03:18:36;102309.56;;;2.79;100.00
19845;BME280;10083;51.038;7.012;2024-01-15T03:21:07;102310.47;;;2.80;100.00
19845;BME280;10083;51.038;7.012;2024-01-15T03:23:35;102306.16;;;2.82;100.00
19845;BME280;10083;51.038;7.012;2024-01-15T03:26:03;102307.81;;;2.80;100.00
19845;BME280;10083;51.038;7.012;2024-01-15T03:28:34;102305.19;;;2.80;100.00
19845;BME280;10083;51.038;7.012;2024-01-15T03:31:04;102298.91;;;2.76;100.00
19845;BME280;10083;51.038;7.012;2024-01-15T03:33:31;102303.94;;;2.68;100.00
19845;BME280;10083;51.038;7.012;2024-01-15T03:35:59;102297.84;;;2.71;100.00
19845;BME280;10083;51.038;7.012;2024-01-15T03:38:28;102291.34;;;2.88;100.00
19845;BME280;10083;51.038;7.012;2024-01-15T03:40:57;102294.16;;;2.93;100.00
19845;BME280;10083;51.038;7.012;2024-01-15T03:43:26;102285.75;;;2.79;100.00
19845;BME280;10083;51.038;7.012;2024-01-15T03:45:56;102288.84;;;2.91;100.00
19845;BME280;10083;51.038;7.012;2024-01-15T03:48:23;102276.63;;;2.96;100.00
19845;BME280;10083;51.038;7.012;2024-01-15T03:50:51;102281.31;;;3.05;100.00
19845;BME280;10083;51.038;7.012;2024-01-15T03:53:22;102277.28;;;2.89;100.00
19845;BME280;10083;51.038;7.012;2024-01-15T03:55:49;102264.66;;;3.07;100.00
19845;BME280;10083;51.038;7.012;2024-01-15T03:58:17;102255.66;;;3.02;100.00
19845;BME280;10083;51.038;7.012;2024-01-15T04:00:47;102251.88;;;2.94;100.00
19845;BME280;10083;51.038;7.012;2024-01-15T04:03:16;102257.19;;;2.94;100.00
19845;BME280;10083;51.038;7.012;2024-01-15T04:05:44;102252.66;;;2.92;100.00
19845;BME280;10083;51.038;7.012;2024-01-15T04:08:14;102244.69;;;2.90;100.00
19845;BME280;10083;51.038;7.012;2024-01-15T04:10:41;102235.47;;;3.06;100.00
19845;BME280;10083;51.038;7.012;2024-01-15T04:13:09;102251.06;;;2.97;100.00
19845;BME280;10083;51.038;7.012;2024-01-15T04:15:37;102241.25;;;2.93;100.00
19845;BME280;10083;51.038;7.012;2024-01-15T04:18:05;102234.22;;;2.93;100.00
19845;BME280;10083;51.038;7.012;2024-01-15T04:20:34;102224.47;;;2.92;100.00
19845;BME280;10083;51.038;7.012;2024-01-15T04:23:01;102221.94;;;2.95;100.00
19845;BME280;10083;51.038;7.012;2024-01-15T04:25:29;102223.91;;;3.02;100.00
19845;BME280;10083;51.038;7.012;2024-01-15T04:27:58;102219.38;;;2.98;100.00
19845;BME280;10083;51.038;7.012;2024-01-15T04:30:26;102220.22;;;2.97;100.00
19845;BME280;10083;51.038;7.012;2024-01-15T04:32:54;102204.63;;;3.06;100.00
19845;BME280;10083;51.038;7.012;2024-01-15T04:35:23;102204.63;;;3.06;100.00
19845;BME280;10083;51.038;7.012;2024-01-15T04:37:52;102207.22;;;3.05;100.00
19845;BME280;10083;51.038;7.012;2024-01-15T04:40:20;102199.25;;;3.03;100.00
19845;BME280;10083;51.038;7.012;2024-01-15T04:42:47;102186.03;;;3.03;100.00
19845;BME280;10083;51.038;7.012;2024-01-15T04:45:15;102190.38;;;3.01;100.00
19845;BME280;10083;51.038;7.012;2024-01-15T04:47:44;102188.47;;;2.97;100.00
19845;BME280;10083;51.038;7.012;2024-01-15T04:50:12;102179.63;;;2.95;100.00
19845;BME280;10083;51.038;7.012;2024-01-15T04:52:40;102174.13;;;2.89;100.00
19845;BME280;10083;51.038;7.012;2024-01-15T04:55:09;102172.94;;;2.80;100.00
19845;BME280;10083;51.038;7.012;2024-01-15T04:57:48;102169.81;;;2.93;100.00
19845;BME280;10083;51.038;7.012;2024-01-15T05:00:17;102199.38;;;2.80;100.00
19845;BME280;10083;51.038;7.012;2024-01-15T05:02:45;102179.41;;;2.89;100.00
19845;BME280;10083;51.038;7.012;2024-01-15T05:05:13;102180.41;;;2.93;100.00
19845;BME280;10083;51.038;7.012;2024-01-15T05:07:42;102177.81;;;2.94;100.00
19845;BME280;10083;51.038;7.012;2024-01-15T05:10:11;102175.66;;;3.11;100.00
19845;BME280;10083;51.038;7.012;2024-01-15T05:12:41;102168.69;;;3.13;100.00
19845;BME280;10083;51.038;7.012;2024-01-15T05:15:08;102174.69;;;3.07;100.00
19845;BME280;10083;51.038;7.012;2024-01-15T05:17:37;102183.59;;;3.11;100.00
19845;BME280;10083;51.038;7.012;2024-01-15T05:20:05;102166.88;;;3.12;100.00
19845;BME280;10083;51.038;7.012;2024-01-15T05:22:33;102158.03;;;3.11;100.00
19845;BME280;10083;51.038;7.012;2024-01-15T05:25:06;102156.28;;;3.12;100.00
19845;BME280;10083;51.038;7.012;2024-01-15T05:27:39;102162.25;;;3.05;100.00
19845;BME280;10083;51.038;7.012;2024-01-15T05:30:08;102156.19;;;3.09;100.00
19845;BME280;10083;51.038;7.012;2024-01-15T05:32:35;102158.81;;;3.07;100.00
19845;BME280;10083;51.038;7.012;2024-01-15T05:35:03;102151.34;;;3.24;100.00
19845;BME280;10083;51.038;7.012;2024-01-15T05:37:32;102149.59;;;3.25;100.00
19845;BME280;10083;51.038;7.012;2024-01-15T05:40:04;102149.53;;;3.22;100.00
19845;BME280;10083;51.038;7.012;2024-01-15T05:42:32;102148.31;;;3.10;100.00
19845;BME280;10083;51.038;7.012;2024-01-15T05:45:01;102137.94;;;3.18;100.00
19845;BME280;10083;51.038;7.012;2024-01-15T05:47:30;102138.06;;;3.23;100.00
19845;BME280;10083;51.038;7.012;2024-01-15T05:49:58;102131.03;;;3.23;100.00
19845;BME280;10083;51.038;7.012;2024-01-15T05:52:26;102127.41;;;3.19;100.00
19845;BME280;10083;51.038;7.012;2024-01-15T05:54:53;102118.69;;;3.24;100.00
19845;BME280;10083;51.038;7.012;2024-01-15T05:57:22;102128.16;;;3.15;100.00
19845;BME280;10083;51.038;7.012;2024-01-15T05:59:49;102129.91;;;3.15;100.00
19845;BME280;10083;51.038;7.012;2024-01-15T06:02:18;102129.91;;;3.15;100.00
19845;BME280;10083;51.038;7.012;2024-01-15T06:04:46;102115.06;;;3.20;100.00
19845;BME280;10083;51.038;7.012;2024-01-15T06:07:13;102121.06;;;3.13;100.00
19845;BME280;10083;51.038;7.012;2024-01-15T06:09:41;102136.53;;;2.99;100.00
19845;BME280;10083;51.038;7.012;2024-01-15T06:12:09;102107.97;;;3.19;100.00
19845;BME280;10083;51.038;7.012;2024-01-15T06:14:36;102111.25;;;3.10;100.00
19845;BME280;10083;51.038;7.012;2024-01-15T06:17:05;102110.34;;;3.10;100.00
19845;BME280;10083;51.038;7.012;2024-01-15T06:19:37;102097.88;;;3.04;100.00
19845;BME280;10083;51.038;7.012;2024-01-15T06:22:07;102097.25;;;3.14;100.00
19845;BME280;10083;51.038;7.012;2024-01-15T06:24:34;102107.63;;;3.07;100.00
19845;BME280;10083;51.038;7.012;2024-01-15T06:27:02;102101.66;;;3.14;100.00
19845;BME280;10083;51.038;7.012;2024-01-15T06:29:30;102107.13;;;3.20;100.00
19845;BME280;10083;51.038;7.012;2024-01-15T06:31:58;102110.81;;;3.27;100.00
19845;BME280;10083;51.038;7.012;2024-01-15T06:34:25;102114.88;;;3.12;100.00
19845;BME280;10083;51.038;7.012;2024-01-15T06:36:55;102110.59;;;3.17;100.00
19845;BME280;10083;51.038;7.012;2024-01-15T06:39:26;102098.50;;;3.27;100.00
19845;BME280;10083;51.038;7.012;2024-01-15T06:42:13;102109.13;;;3.29;100.00
19845;BME280;10083;51.038;7.012;2024-01-15T06:44:41;102102.03;;;3.26;100.00
19845;BME280;10083;51.038;7.012;2024-01-15T06:47:09;102081.81;;;3.30;100.00
19845;BME280;10083;51.038;7.012;2024-01-15T06:49:37;102088.09;;;3.33;100.00
19845;BME280;10083;51.038;7.012;2024-01-15T06:52:07;102088.88;;;3.31;100.00
19845;BME280;10083;51.038;7.012;2024-01-15T06:54:34;102076.28;;;3.22;100.00
19845;BME280;10083;51.038;7.012;2024-01-15T06:57:02;102085.19;;;3.24;100.00
19845;BME280;10083;51.038;7.012;2024-01-15T06:59:38;102070.53;;;3.05;100.00
19845;BME280;10083;51.038;7.012;2024-01-15T07:02:06;102088.16;;;3.05;100.00
19845;BME280;10083;51.038;7.012;2024-01-15T07:04:34;102092.34;;;2.97;100.00
19845;BME280;10083;51.038;7.012;2024-01-15T07:07:18;102069.75;;;3.08;100.00
19845;BME280;10083;51.038;7.012;2024-01-15T07:09:59;102077.22;;;2.91;100.00
19845;BME280;10083;51.038;7.012;2024-01-15T07:12:32;102090.44;;;2.91;100.00
19845;BME280;10083;51.038;7.012;2024-01-15T07:15:02;102122.19;;;2.93;100.00
19845;BME280;10083;51.038;7.012;2024-01-15T07:17:34;102110.19;;;3.04;100.00
19845;BME280;10083;51.038;7.012;2024-01-15T07:20:06;102120.66;;;2.99;100.00
19845;BME280;10083;51.038;7.012;2024-01-15T07:22:37;102127.13;;;3.10;100.00
19845;BME280;10083;51.038;7.012;2024-01-15T07:25:05;102146.63;;;3.12;100.00
19845;BME280;10083;51.038;7.012;2024-01-15T07:27:33;102163.81;;;2.98;100.00
19845;BME280;10083;51.038;7.012;2024-01-15T07:30:02;102169.31;;;3.04;100.00
19845;BME280;10083;51.038;7.012;2024-01-15T07:32:31;102164.19;;;3.10;100.00
19845;BME280;10083;51.038;7.012;2024-01-15T07:34:58;102178.38;;;3.12;100.00
19845;BME280;10083;51.038;7.012;2024-01-15T07:37:27;102170.50;;;3.15;100.00
19845;BME280;10083;51.038;7.012;2024-01-15T07:39:56;102175.13;;;3.23;100.00
19845;BME280;10083;51.038;7.012;2024-01-15T07:42:24;102178.66;;;3.22;100.00
19845;BME280;10083;51.038;7.012;2024-01-15T07:44:52;102178.03;;;3.02;100.00
19845;BME280;10083;51.038;7.012;2024-01-15T07:47:24;102179.16;;;3.10;100.00
19845;BME280;10083;51.038;7.012;2024-01-15T07:49:53;102183.81;;;3.18;100.00
19845;BME280;10083;51.038;7.012;2024-01-15T07:52:21;102174.47;;;3.30;100.00
19845;BME280;10083;51.038;7.012;2024-01-15T07:54:50;102165.78;;;3.35;100.00
19845;BME280;10083;51.038;7.012;2024-01-15T07:57:20;102175.38;;;3.32;100.00
19845;BME280;10083;51.038;7.012;2024-01-15T07:59:50;102159.69;;;3.38;100.00
19845;BME280;10083;51.038;7.012;2024-01-15T08:02:18;102151.81;;;3.39;100.00
19845;BME280;10083;51.038;7.012;2024-01-15T08:04:47;102164.81;;;3.32;100.00
19845;BME280;10083;51.038;7.012;2024-01-15T08:07:16;102148.19;;;3.37;100.00
19845;BME280;10083;51.038;7.012;2024-01-15T08:09:44;102138.25;;;3.29;100.00
19845;BME280;10083;51.038;7.012;2024-01-15T08:12:13;102125.41;;;3.42;100.00
19845;BME280;10083;51.038;7.012;2024-01-15T08:14:43;102121.91;;;3.43;100.00
19845;BME280;10083;51.038;7.012;2024-01-15T08:17:11;102116.50;;;3.40;100.00
19845;BME280;10083;51.038;7.012;2024-01-15T08:19:39;102107.41;;;3.31;100.00
19845;BME280;10083;51.038;7.012;2024-01-15T08:22:07;102093.31;;;3.32;100.00
19845;BME280;10083;51.038;7.012;2024-01-15T08:24:38;102079.44;;;3.40;100.00
19845;BME280;10083;51.038;7.012;2024-01-15T08:27:07;102085.38;;;3.32;100.00
19845;BME280;10083;51.038;7.012;2024-01-15T08:29:35;102070.28;;;3.28;100.00
19845;BME280;10083;51.038;7.012;2024-01-15T08:32:06;102067.16;;;3.42;100.00
19845;BME280;10083;51.038;7.012;2024-01-15T08:34:43;102071.50;;;3.40;100.00
19845;BME280;10083;51.038;7.012;2024-01-15T08:37:15;102080.88;;;3.28;100.00
19845;BME280;10083;51.038;7.012;2024-01-15T08:39:49;102069.38;;;3.26;100.00
19845;BME280;10083;51.038;7.012;2024-01-15T08:42:26;102055.84;;;3.48;100.00
19845;BME280;10083;51.038;7.012;2024-01-15T08:44:55;102070.84;;;3.47;100.00
19845;BME280;10083;51.038;7.012;2024-01-15T08:50:12;102062.38;;;3.29;100.00
19845;BME280;10083;51.038;7.012;2024-01-15T08:52:47;102057.50;;;3.11;100.00
19845;BME280;10083;51.038;7.012;2024-01-15T08:55:23;102052.19;;;3.11;100.00
19845;BME280;10083;51.038;7.012;2024-01-15T08:57:51;102040.91;;;3.17;100.00
19845;BME280;10083;51.038;7.012;2024-01-15T09:00:36;102048.66;;;3.11;100.00
19845;BME280;10083;51.038;7.012;2024-01-15T09:03:14;102038.13;;;3.12;100.00
19845;BME280;10083;51.038;7.012;2024-01-15T09:05:55;102059.44;;;2.87;100.00
19845;BME280;10083;51.038;7.012;2024-01-15T09:08:37;102045.34;;;2.88;100.00
19845;BME280;10083;51.038;7.012;2024-01-15T09:11:14;102060.25;;;2.85;100.00
19845;BME280;10083;51.038;7.012;2024-01-15T09:13:42;102069.94;;;2.84;100.00
19845;BME280;10083;51.038;7.012;2024-01-15T09:16:10;102075.97;;;2.80;100.00
19845;BME280;10083;51.038;7.012;2024-01-15T09:18:38;102087.66;;;2.87;100.00
19845;BME280;10083;51.038;7.012;2024-01-15T09:21:08;102088.41;;;2.83;100.00
19845;BME280;10083;51.038;7.012;2024-01-15T09:23:37;102099.88;;;2.83;100.00
19845;BME280;10083;51.038;7.012;2024-01-15T09:26:08;102122.25;;;2.94;100.00
19845;BME280;10083;51.038;7.012;2024-01-15T09:28:35;102114.25;;;2.91;100.00
19845;BME280;10083;51.038;7.012;2024-01-15T09:31:03;102142.81;;;2.74;100.00
19845;BME280;10083;51.038;7.012;2024-01-15T09:33:31;102150.47;;;2.94;100.00
19845;BME280;10083;51.038;7.012;2024-01-15T09:36:02;102158.41;;;2.94;100.00
19845;BME280;10083;51.038;7.012;2024-01-15T09:38:33;102160.69;;;2.82;100.00
19845;BME280;10083;51.038;7.012;2024-01-15T09:41:03;102178.09;;;2.75;100.00
19845;BME280;10083;51.038;7.012;2024-01-15T09:43:32;102164.25;;;2.84;100.00
19845;BME280;10083;51.038;7.012;2024-01-15T09:46:00;102171.13;;;2.79;100.00
19845;BME280;10083;51.038;7.012;2024-01-15T09:48:28;102193.94;;;2.75;100.00
19845;BME280;10083;51.038;7.012;2024-01-15T09:50:57;102201.63;;;2.94;100.00
19845;BME280;10083;51.038;7.012;2024-01-15T09:53:28;102223.31;;;2.83;100.00
19845;BME280;10083;51.038;7.012;2024-01-15T09:58:40;102217.66;;;2.72;100.00
19845;BME280;10083;51.038;7.012;2024-01-15T10:01:17;102235.94;;;2.64;100.00
19845;BME280;10083;51.038;7.012;2024-01-15T10:03:46;102226.59;;;2.76;100.00
19845;BME280;10083;51.038;7.012;2024-01-15T10:06:30;102227.78;;;2.85;100.00
19845;BME280;10083;51.038;7.012;2024-01-15T10:08:59;102234.88;;;2.86;100.00
19845;BME280;10083;51.038;7.012;2024-01-15T10:11:35;102237.25;;;2.79;100.00
19845;BME280;10083;51.038;7.012;2024-01-15T10:14:23;102240.78;;;2.78;100.00
19845;BME280;10083;51.038;7.012;2024-01-15T10:17:12;102246.97;;;2.78;100.00
19845;BME280;10083;51.038;7.012;2024-01-15T10:19:54;102247.06;;;2.81;100.00
19845;BME280;10083;51.038;7.012;2024-01-15T10:22:23;102245.19;;;2.79;100.00
19845;BME280;10083;51.038;7.012;2024-01-15T10:25:04;102258.31;;;2.76;100.00
19845;BME280;10083;51.038;7.012;2024-01-15T10:27:40;102252.63;;;2.90;100.00
19845;BME280;10083;51.038;7.012;2024-01-15T10:30:17;102258.78;;;2.89;100.00
19845;BME280;10083;51.038;7.012;2024-01-15T10:32:58;102254.22;;;2.85;100.00
19845;BME280;10083;51.038;7.012;2024-01-15T10:35:36;102254.09;;;2.81;100.00
19845;BME280;10083;51.038;7.012;2024-01-15T10:38:11;102256.44;;;2.71;100.00
19845;BME280;10083;51.038;7.012;2024-01-15T10:40:48;102258.16;;;2.71;100.00
19845;BME280;10083;51.038;7.012;2024-01-15T10:43:18;102244.00;;;2.96;100.00
19845;BME280;10083;51.038;7.012;2024-01-15T10:45:58;102248.84;;;2.82;100.00
19845;BME280;10083;51.038;7.012;2024-01-15T10:48:29;102248.72;;;2.78;100.00
19845;BME280;10083;51.038;7.012;2024-01-15T10:51:06;102253.78;;;2.71;100.00
19845;BME280;10083;51.038;7.012;2024-01-15T10:53:50;102255.22;;;2.62;100.00
19845;BME280;10083;51.038;7.012;2024-01-15T10:56:25;102245.41;;;2.85;100.00
19845;BME280;10083;51.038;7.012;2024-01-15T10:59:10;102242.84;;;2.88;100.00
19845;BME280;10083;51.038;7.012;2024-01-15T11:01:55;102221.94;;;2.95;100.00
19845;BME280;10083;51.038;7.012;2024-01-15T11:04:33;102232.97;;;3.10;100.00
19845;BME280;10083;51.038;7.012;2024-01-15T11:07:11;102246.84;;;3.30;100.00
19845;BME280;10083;51.038;7.012;2024-01-15T11:09:40;102248.88;;;3.40;100.00
19845;BME280;10083;51.038;7.012;2024-01-15T11:12:11;102233.19;;;3.16;100.00
19845;BME280;10083;51.038;7.012;2024-01-15T11:14:40;102227.97;;;3.19;100.00
19845;BME280;10083;51.038;7.012;2024-01-15T11:17:16;102237.66;;;2.91;100.00
19845;BME280;10083;51.038;7.012;2024-01-15T11:19:46;102233.13;;;3.15;100.00
19845;BME280;10083;51.038;7.012;2024-01-15T11:22:48;102239.38;;;3.47;100.00
19845;BME280;10083;51.038;7.012;2024-01-15T11:25:17;102233.19;;;3.46;100.00
19845;BME280;10083;51.038;7.012;2024-01-15T11:27:45;102216.59;;;3.52;100.00
19845;BME280;10083;51.038;7.012;2024-01-15T11:30:17;102216.94;;;3.64;100.00
19845;BME280;10083;51.038;7.012;2024-01-15T11:32:49;102242.53;;;3.35;100.00
19845;BME280;10083;51.038;7.012;2024-01-15T11:43:28;102211.94;;;3.43;100.00
19845;BME280;10083;51.038;7.012;2024-01-15T11:46:01;102210.13;;;3.42;100.00
19845;BME280;10083;51.038;7.012;2024-01-15T11:48:42;102209.50;;;3.51;100.00
19845;BME280;10083;51.038;7.012;2024-01-15T11:51:18;102187.63;;;3.58;100.00
19845;BME280;10083;51.038;7.012;2024-01-15T11:53:59;102178.63;;;3.53;100.00
19845;BME280;10083;51.038;7.012;2024-01-15T11:56:49;102171.78;;;3.59;100.00
19845;BME280;10083;51.038;7.012;2024-01-15T11:59:38;102169.06;;;3.58;100.00
19845;BME280;10083;51.038;7.012;2024-01-15T12:02:21;102162.91;;;3.28;100.00
19845;BME280;10083;51.038;7.012;2024-01-15T12:05:09;102137.69;;;3.40;100.00
19845;BME280;10083;51.038;7.012;2024-01-15T12:08:22;102128.56;;;3.62;100.00
19845;BME280;10083;51.038;7.012;2024-01-15T12:10:58;102133.16;;;3.68;100.00
19845;BME280;10083;51.038;7.012;2024-01-15T12:13:45;102086.44;;;4.05;100.00
19845;BME280;10083;51.038;7.012;2024-01-15T12:16:29;102125.06;;;4.69;100.00
19845;BME280;10083;51.038;7.012;2024-01-15T12:19:21;102140.16;;;5.12;100.00
19845;BME280;10083;51.038;7.012;2024-01-15T12:22:25;102100.72;;;5.30;100.00
19845;BME280;10083;51.038;7.012;2024-01-15T12:25:15;102062.19;;;5.52;100.00
19845;BME280;10083;51.038;7.012;2024-01-15T12:28:30;102109.06;;;4.66;100.00
19845;BME280;10083;51.038;7.012;2024-01-15T12:31:19;102100.91;;;4.57;100.00
19845;BME280;10083;51.038;7.012;2024-01-15T12:34:10;102097.00;;;4.80;100.00
19845;BME280;10083;51.038;7.012;2024-01-15T12:39:55;102112.56;;;3.90;100.00
19845;BME280;10083;51.038;7.012;2024-01-15T12:42:31;102098.38;;;3.88;100.00
19845;BME280;10083;51.038;7.012;2024-01-15T12:45:30;102081.31;;;3.77;100.00
19845;BME280;10083;51.038;7.012;2024-01-15T12:50:52;102076.63;;;3.67;100.00
19845;BME280;10083;51.038;7.012;2024-01-15T12:53:19;102107.06;;;3.50;100.00
19845;BME280;10083;51.038;7.012;2024-01-15T12:55:48;102080.06;;;3.63;100.00
19845;BME280;10083;51.038;7.012;2024-01-15T12:58:15;102083.53;;;3.60;100.00
19845;BME280;10083;51.038;7.012;2024-01-15T13:00:46;102083.66;;;3.65;100.00
19845;BME280;10083;51.038;7.012;2024-01-15T13:03:13;102078.13;;;3.56;100.00
19845;BME280;10083;51.038;7.012;2024-01-15T13:05:41;102088.19;;;3.69;100.00
19845;BME280;10083;51.038;7.012;2024-01-15T13:08:09;102084.88;;;3.78;100.00
19845;BME280;10083;51.038;7.012;2024-01-15T13:10:38;102108.94;;;3.54;100.00
19845;BME280;10083;51.038;7.012;2024-01-15T13:13:09;102107.38;;;3.62;100.00
19845;BME280;10083;51.038;7.012;2024-01-15T13:15:36;102114.31;;;3.57;100.00
19845;BME280;10083;51.038;7.012;2024-01-15T13:18:04;102112.78;;;3.65;100.00
19845;BME280;10083;51.038;7.012;2024-01-15T13:20:32;102115.50;;;3.68;100.00
19845;BME280;10083;51.038;7.012;2024-01-15T13:22:59;102116.94;;;3.55;100.00
19845;BME280;10083;51.038;7.012;2024-01-15T13:25:29;102122.38;;;3.60;100.00
19845;BME280;10083;51.038;7.012;2024-01-15T13:27:57;102095.38;;;3.75;100.00
19845;BME280;10083;51.038;7.012;2024-01-15T14:39:14;102152.59;;;3.37;100.00
19845;BME280;10083;51.038;7.012;2024-01-15T14:42:07;102167.75;;;3.42;100.00